sensor_id;sensor_type;location;lat;lon;timestamp;P1;durP1;ratioP1;P2;durP2;ratioP2
4389;SDS011;2209;48.982;8.406;2023-08-30T00:01:27;3.50;;;3.20;;
4389;SDS011;2209;48.982;8.406;2023-08-30T00:03:49;2.70;;;2.50;;
4389;SDS011;2209;48.982;8.406;2023-08-30T00:06:11;4.70;;;3.10;;
4389;SDS011;2209;48.982;8.406;2023-08-30T00:08:34;9.90;;;3.10;;
4389;SDS011;2209;48.982;8.406;2023-08-30T00:10:56;7.70;;;3.90;;
4389;SDS011;2209;48.982;8.406;2023-08-30T00:13:19;3.60;;;3.30;;
4389;SDS011;2209;48.982;8.406;2023-08-30T00:15:42;3.27;;;2.97;;
4389;SDS011;2209;48.982;8.406;2023-08-30T00:18:04;3.60;;;3.30;;
4389;SDS011;2209;48.982;8.406;2023-08-30T00:20:27;3.23;;;2.97;;
4389;SDS011;2209;48.982;8.406;2023-08-30T00:22:49;4.53;;;4.00;;
4389;SDS011;2209;48.982;8.406;2023-08-30T00:25:11;4.60;;;3.10;;
4389;SDS011;2209;48.982;8.406;2023-08-30T00:27:33;3.40;;;3.20;;
4389;SDS011;2209;48.982;8.406;2023-08-30T00:29:56;3.87;;;3.47;;
4389;SDS011;2209;48.982;8.406;2023-08-30T00:32:19;4.80;;;2.80;;
4389;SDS011;2209;48.982;8.406;2023-08-30T00:34:42;3.80;;;3.50;;
4389;SDS011;2209;48.982;8.406;2023-08-30T00:37:04;6.70;;;3.20;;
4389;SDS011;2209;48.982;8.406;2023-08-30T00:39:26;3.67;;;3.40;;
4389;SDS011;2209;48.982;8.406;2023-08-30T00:41:48;3.40;;;3.20;;
4389;SDS011;2209;48.982;8.406;2023-08-30T00:44:10;3.57;;;3.27;;
4389;SDS011;2209;48.982;8.406;2023-08-30T00:46:33;3.90;;;3.60;;
4389;SDS011;2209;48.982;8.406;2023-08-30T00:48:56;6.33;;;3.03;;
4389;SDS011;2209;48.982;8.406;2023-08-30T00:51:19;3.23;;;3.03;;
4389;SDS011;2209;48.982;8.406;2023-08-30T00:53:41;4.93;;;2.97;;
4389;SDS011;2209;48.982;8.406;2023-08-30T00:56:05;2.90;;;2.70;;
4389;SDS011;2209;48.982;8.406;2023-08-30T00:58:27;3.53;;;3.30;;
4389;SDS011;2209;48.982;8.406;2023-08-30T01:00:49;3.37;;;3.17;;
4389;SDS011;2209;48.982;8.406;2023-08-30T01:03:12;3.70;;;3.20;;
4389;SDS011;2209;48.982;8.406;2023-08-30T01:05:36;3.60;;;3.37;;
4389;SDS011;2209;48.982;8.406;2023-08-30T01:07:58;3.23;;;3.03;;
4389;SDS011;2209;48.982;8.406;2023-08-30T01:10:21;5.27;;;3.63;;
4389;SDS011;2209;48.982;8.406;2023-08-30T01:12:48;3.37;;;3.10;;
4389;SDS011;2209;48.982;8.406;2023-08-30T01:15:31;4.13;;;2.60;;
4389;SDS011;2209;48.982;8.406;2023-08-30T01:17:55;3.07;;;2.23;;
4389;SDS011;2209;48.982;8.406;2023-08-30T01:20:18;2.57;;;2.37;;
4389;SDS011;2209;48.982;8.406;2023-08-30T01:22:45;4.47;;;2.70;;
4389;SDS011;2209;48.982;8.406;2023-08-30T01:25:17;3.93;;;3.70;;
4389;SDS011;2209;48.982;8.406;2023-08-30T01:27:50;2.73;;;2.53;;
4389;SDS011;2209;48.982;8.406;2023-08-30T01:30:13;2.70;;;2.60;;
4389;SDS011;2209;48.982;8.406;2023-08-30T01:32:36;2.50;;;2.40;;
4389;SDS011;2209;48.982;8.406;2023-08-30T01:35:00;3.43;;;3.13;;
4389;SDS011;2209;48.982;8.406;2023-08-30T01:37:23;3.10;;;2.90;;
4389;SDS011;2209;48.982;8.406;2023-08-30T01:39:46;4.93;;;3.50;;
4389;SDS011;2209;48.982;8.406;2023-08-30T01:42:09;3.20;;;3.00;;
4389;SDS011;2209;48.982;8.406;2023-08-30T01:44:33;2.30;;;2.20;;
4389;SDS011;2209;48.982;8.406;2023-08-30T01:46:56;3.67;;;3.37;;
4389;SDS011;2209;48.982;8.406;2023-08-30T01:49:19;2.97;;;2.80;;
4389;SDS011;2209;48.982;8.406;2023-08-30T01:51:42;3.37;;;3.07;;
4389;SDS011;2209;48.982;8.406;2023-08-30T01:54:05;3.37;;;3.10;;
4389;SDS011;2209;48.982;8.406;2023-08-30T01:56:28;3.23;;;3.00;;
4389;SDS011;2209;48.982;8.406;2023-08-30T01:58:50;2.93;;;2.73;;
4389;SDS011;2209;48.982;8.406;2023-08-30T02:01:14;6.43;;;4.30;;
4389;SDS011;2209;48.982;8.406;2023-08-30T02:03:36;3.30;;;3.00;;
4389;SDS011;2209;48.982;8.406;2023-08-30T02:06:00;2.90;;;2.53;;
4389;SDS011;2209;48.982;8.406;2023-08-30T02:08:30;3.67;;;3.37;;
4389;SDS011;2209;48.982;8.406;2023-08-30T02:10:59;6.23;;;3.23;;
4389;SDS011;2209;48.982;8.406;2023-08-30T02:13:26;3.80;;;3.50;;
4389;SDS011;2209;48.982;8.406;2023-08-30T02:15:51;4.37;;;3.07;;
4389;SDS011;2209;48.982;8.406;2023-08-30T02:18:17;4.20;;;3.80;;
4389;SDS011;2209;48.982;8.406;2023-08-30T02:20:40;3.93;;;3.50;;
4389;SDS011;2209;48.982;8.406;2023-08-30T02:23:02;6.87;;;3.27;;
4389;SDS011;2209;48.982;8.406;2023-08-30T02:25:24;5.33;;;3.83;;
4389;SDS011;2209;48.982;8.406;2023-08-30T02:27:47;3.67;;;3.43;;
4389;SDS011;2209;48.982;8.406;2023-08-30T02:30:09;4.13;;;3.73;;
4389;SDS011;2209;48.982;8.406;2023-08-30T02:32:32;4.03;;;3.63;;
4389;SDS011;2209;48.982;8.406;2023-08-30T02:34:55;4.10;;;3.60;;
4389;SDS011;2209;48.982;8.406;2023-08-30T02:37:18;4.10;;;3.43;;
4389;SDS011;2209;48.982;8.406;2023-08-30T02:39:40;4.90;;;3.63;;
4389;SDS011;2209;48.982;8.406;2023-08-30T02:42:02;5.63;;;3.50;;
4389;SDS011;2209;48.982;8.406;2023-08-30T02:44:24;3.50;;;3.30;;
4389;SDS011;2209;48.982;8.406;2023-08-30T02:46:46;3.50;;;3.30;;
4389;SDS011;2209;48.982;8.406;2023-08-30T02:49:09;3.33;;;3.13;;
4389;SDS011;2209;48.982;8.406;2023-08-30T02:51:33;3.53;;;3.33;;
4389;SDS011;2209;48.982;8.406;2023-08-30T02:53:55;3.80;;;3.50;;
4389;SDS011;2209;48.982;8.406;2023-08-30T02:56:17;3.27;;;3.10;;
4389;SDS011;2209;48.982;8.406;2023-08-30T02:58:39;5.57;;;3.50;;
4389;SDS011;2209;48.982;8.406;2023-08-30T03:01:01;3.77;;;3.47;;
4389;SDS011;2209;48.982;8.406;2023-08-30T03:03:24;4.07;;;3.77;;
4389;SDS011;2209;48.982;8.406;2023-08-30T03:05:46;3.70;;;3.50;;
4389;SDS011;2209;48.982;8.406;2023-08-30T03:08:09;5.17;;;3.50;;
4389;SDS011;2209;48.982;8.406;2023-08-30T03:10:31;4.77;;;3.57;;
4389;SDS011;2209;48.982;8.406;2023-08-30T03:12:54;3.13;;;2.93;;
4389;SDS011;2209;48.982;8.406;2023-08-30T03:15:16;2.70;;;2.60;;
4389;SDS011;2209;48.982;8.406;2023-08-30T03:17:38;3.87;;;3.57;;
4389;SDS011;2209;48.982;8.406;2023-08-30T03:20:00;3.63;;;3.33;;
4389;SDS011;2209;48.982;8.406;2023-08-30T03:22:24;3.87;;;3.57;;
4389;SDS011;2209;48.982;8.406;2023-08-30T03:24:47;3.40;;;3.13;;
4389;SDS011;2209;48.982;8.406;2023-08-30T03:27:09;3.83;;;3.53;;
4389;SDS011;2209;48.982;8.406;2023-08-30T03:29:31;4.10;;;3.70;;
4389;SDS011;2209;48.982;8.406;2023-08-30T03:31:53;5.20;;;3.43;;
4389;SDS011;2209;48.982;8.406;2023-08-30T03:34:16;3.10;;;2.90;;
4389;SDS011;2209;48.982;8.406;2023-08-30T03:36:38;3.20;;;3.00;;
4389;SDS011;2209;48.982;8.406;2023-08-30T03:39:00;3.37;;;3.17;;
4389;SDS011;2209;48.982;8.406;2023-08-30T03:41:24;3.47;;;3.27;;
4389;SDS011;2209;48.982;8.406;2023-08-30T03:43:46;3.10;;;2.80;;
4389;SDS011;2209;48.982;8.406;2023-08-30T03:46:08;4.00;;;3.70;;
4389;SDS011;2209;48.982;8.406;2023-08-30T03:48:32;6.23;;;3.50;;
4389;SDS011;2209;48.982;8.406;2023-08-30T03:50:54;4.87;;;4.13;;
4389;SDS011;2209;48.982;8.406;2023-08-30T03:53:17;3.77;;;3.33;;
4389;SDS011;2209;48.982;8.406;2023-08-30T03:55:40;3.87;;;3.57;;
4389;SDS011;2209;48.982;8.406;2023-08-30T03:58:03;4.70;;;4.30;;
4389;SDS011;2209;48.982;8.406;2023-08-30T04:00:25;4.10;;;3.77;;
4389;SDS011;2209;48.982;8.406;2023-08-30T04:02:48;4.70;;;4.30;;
4389;SDS011;2209;48.982;8.406;2023-08-30T04:05:10;4.47;;;4.07;;
4389;SDS011;2209;48.982;8.406;2023-08-30T04:07:33;4.43;;;3.67;;
4389;SDS011;2209;48.982;8.406;2023-08-30T04:09:55;3.70;;;3.50;;
4389;SDS011;2209;48.982;8.406;2023-08-30T04:12:18;2.83;;;2.73;;
4389;SDS011;2209;48.982;8.406;2023-08-30T04:14:41;4.37;;;3.93;;
4389;SDS011;2209;48.982;8.406;2023-08-30T04:17:04;3.53;;;3.20;;
4389;SDS011;2209;48.982;8.406;2023-08-30T04:19:26;4.80;;;3.20;;
4389;SDS011;2209;48.982;8.406;2023-08-30T04:21:48;3.77;;;3.57;;
4389;SDS011;2209;48.982;8.406;2023-08-30T04:24:10;3.97;;;3.67;;
4389;SDS011;2209;48.982;8.406;2023-08-30T04:26:32;4.70;;;4.40;;
4389;SDS011;2209;48.982;8.406;2023-08-30T04:28:54;3.60;;;3.40;;
4389;SDS011;2209;48.982;8.406;2023-08-30T04:31:18;4.07;;;3.77;;
4389;SDS011;2209;48.982;8.406;2023-08-30T04:33:40;4.60;;;3.80;;
4389;SDS011;2209;48.982;8.406;2023-08-30T04:36:02;4.53;;;4.23;;
4389;SDS011;2209;48.982;8.406;2023-08-30T04:38:24;4.23;;;3.93;;
4389;SDS011;2209;48.982;8.406;2023-08-30T04:40:47;3.40;;;3.20;;
4389;SDS011;2209;48.982;8.406;2023-08-30T04:43:09;3.97;;;3.70;;
4389;SDS011;2209;48.982;8.406;2023-08-30T04:45:31;8.50;;;3.13;;
4389;SDS011;2209;48.982;8.406;2023-08-30T04:47:56;4.17;;;3.87;;
4389;SDS011;2209;48.982;8.406;2023-08-30T04:50:19;5.03;;;3.70;;
4389;SDS011;2209;48.982;8.406;2023-08-30T04:52:41;3.90;;;3.60;;
4389;SDS011;2209;48.982;8.406;2023-08-30T04:55:04;4.40;;;4.00;;
4389;SDS011;2209;48.982;8.406;2023-08-30T04:57:27;5.33;;;4.13;;
4389;SDS011;2209;48.982;8.406;2023-08-30T04:59:49;5.10;;;4.60;;
4389;SDS011;2209;48.982;8.406;2023-08-30T05:02:11;5.03;;;3.70;;
4389;SDS011;2209;48.982;8.406;2023-08-30T05:04:35;4.37;;;4.07;;
4389;SDS011;2209;48.982;8.406;2023-08-30T05:06:57;4.93;;;4.33;;
4389;SDS011;2209;48.982;8.406;2023-08-30T05:09:19;4.07;;;3.77;;
4389;SDS011;2209;48.982;8.406;2023-08-30T05:11:45;4.23;;;3.93;;
4389;SDS011;2209;48.982;8.406;2023-08-30T05:14:07;4.60;;;4.20;;
4389;SDS011;2209;48.982;8.406;2023-08-30T05:16:33;5.80;;;4.20;;
4389;SDS011;2209;48.982;8.406;2023-08-30T05:18:55;3.77;;;3.53;;
4389;SDS011;2209;48.982;8.406;2023-08-30T05:21:18;5.50;;;4.30;;
4389;SDS011;2209;48.982;8.406;2023-08-30T05:23:40;5.13;;;4.60;;
4389;SDS011;2209;48.982;8.406;2023-08-30T05:26:03;4.20;;;3.90;;
4389;SDS011;2209;48.982;8.406;2023-08-30T05:28:25;4.10;;;3.70;;
4389;SDS011;2209;48.982;8.406;2023-08-30T05:30:47;4.30;;;3.77;;
4389;SDS011;2209;48.982;8.406;2023-08-30T05:33:09;4.30;;;3.90;;
4389;SDS011;2209;48.982;8.406;2023-08-30T05:35:31;4.00;;;3.60;;
4389;SDS011;2209;48.982;8.406;2023-08-30T05:37:55;3.57;;;3.27;;
4389;SDS011;2209;48.982;8.406;2023-08-30T05:40:17;4.50;;;4.20;;
4389;SDS011;2209;48.982;8.406;2023-08-30T05:42:39;5.43;;;4.50;;
4389;SDS011;2209;48.982;8.406;2023-08-30T05:45:01;4.17;;;3.70;;
4389;SDS011;2209;48.982;8.406;2023-08-30T05:47:24;4.23;;;3.83;;
4389;SDS011;2209;48.982;8.406;2023-08-30T05:49:46;4.80;;;3.93;;
4389;SDS011;2209;48.982;8.406;2023-08-30T05:52:08;4.10;;;3.70;;
4389;SDS011;2209;48.982;8.406;2023-08-30T05:54:32;3.73;;;3.53;;
4389;SDS011;2209;48.982;8.406;2023-08-30T05:56:54;4.37;;;4.07;;
4389;SDS011;2209;48.982;8.406;2023-08-30T05:59:16;4.00;;;3.77;;
4389;SDS011;2209;48.982;8.406;2023-08-30T06:01:38;4.23;;;3.87;;
4389;SDS011;2209;48.982;8.406;2023-08-30T06:04:00;4.07;;;3.80;;
4389;SDS011;2209;48.982;8.406;2023-08-30T06:06:24;4.30;;;3.90;;
4389;SDS011;2209;48.982;8.406;2023-08-30T06:08:47;4.10;;;3.80;;
4389;SDS011;2209;48.982;8.406;2023-08-30T06:11:11;4.13;;;3.90;;
4389;SDS011;2209;48.982;8.406;2023-08-30T06:13:34;6.43;;;4.07;;
4389;SDS011;2209;48.982;8.406;2023-08-30T06:15:56;4.10;;;3.70;;
4389;SDS011;2209;48.982;8.406;2023-08-30T06:18:18;5.40;;;3.57;;
4389;SDS011;2209;48.982;8.406;2023-08-30T06:20:40;4.03;;;3.83;;
4389;SDS011;2209;48.982;8.406;2023-08-30T06:23:03;4.57;;;4.27;;
4389;SDS011;2209;48.982;8.406;2023-08-30T06:25:25;5.03;;;4.53;;
4389;SDS011;2209;48.982;8.406;2023-08-30T06:27:56;4.10;;;3.80;;
4389;SDS011;2209;48.982;8.406;2023-08-30T06:30:19;3.67;;;3.47;;
4389;SDS011;2209;48.982;8.406;2023-08-30T06:32:41;3.77;;;3.47;;
4389;SDS011;2209;48.982;8.406;2023-08-30T06:35:04;3.60;;;3.40;;
4389;SDS011;2209;48.982;8.406;2023-08-30T06:37:26;3.67;;;3.47;;
4389;SDS011;2209;48.982;8.406;2023-08-30T06:39:48;4.40;;;4.10;;
4389;SDS011;2209;48.982;8.406;2023-08-30T06:42:10;3.40;;;3.10;;
4389;SDS011;2209;48.982;8.406;2023-08-30T06:44:34;3.77;;;3.30;;
4389;SDS011;2209;48.982;8.406;2023-08-30T06:46:56;3.60;;;3.40;;
4389;SDS011;2209;48.982;8.406;2023-08-30T06:49:18;4.03;;;3.70;;
4389;SDS011;2209;48.982;8.406;2023-08-30T06:51:41;7.57;;;3.63;;
4389;SDS011;2209;48.982;8.406;2023-08-30T06:54:03;3.60;;;3.40;;
4389;SDS011;2209;48.982;8.406;2023-08-30T06:56:25;4.20;;;3.90;;
4389;SDS011;2209;48.982;8.406;2023-08-30T06:58:47;3.43;;;3.23;;
4389;SDS011;2209;48.982;8.406;2023-08-30T07:01:11;4.07;;;3.73;;
4389;SDS011;2209;48.982;8.406;2023-08-30T07:03:33;3.63;;;3.43;;
4389;SDS011;2209;48.982;8.406;2023-08-30T07:05:55;3.27;;;3.07;;
4389;SDS011;2209;48.982;8.406;2023-08-30T07:08:17;3.13;;;2.93;;
4389;SDS011;2209;48.982;8.406;2023-08-30T07:10:39;3.67;;;3.30;;
4389;SDS011;2209;48.982;8.406;2023-08-30T07:13:01;2.87;;;2.77;;
4389;SDS011;2209;48.982;8.406;2023-08-30T07:15:24;3.20;;;3.00;;
4389;SDS011;2209;48.982;8.406;2023-08-30T07:17:48;3.20;;;3.00;;
4389;SDS011;2209;48.982;8.406;2023-08-30T07:20:10;3.50;;;3.30;;
4389;SDS011;2209;48.982;8.406;2023-08-30T07:22:32;4.10;;;3.80;;
4389;SDS011;2209;48.982;8.406;2023-08-30T07:24:55;4.10;;;3.70;;
4389;SDS011;2209;48.982;8.406;2023-08-30T07:27:17;3.33;;;3.13;;
4389;SDS011;2209;48.982;8.406;2023-08-30T07:29:39;3.47;;;3.13;;
4389;SDS011;2209;48.982;8.406;2023-08-30T07:32:01;3.10;;;2.90;;
4389;SDS011;2209;48.982;8.406;2023-08-30T07:34:25;3.27;;;3.07;;
4389;SDS011;2209;48.982;8.406;2023-08-30T07:36:47;3.13;;;2.93;;
4389;SDS011;2209;48.982;8.406;2023-08-30T07:39:09;3.60;;;3.40;;
4389;SDS011;2209;48.982;8.406;2023-08-30T07:41:33;3.73;;;3.40;;
4389;SDS011;2209;48.982;8.406;2023-08-30T07:43:55;3.80;;;3.50;;
4389;SDS011;2209;48.982;8.406;2023-08-30T07:46:18;4.20;;;3.80;;
4389;SDS011;2209;48.982;8.406;2023-08-30T07:48:40;3.70;;;3.50;;
4389;SDS011;2209;48.982;8.406;2023-08-30T07:51:03;3.60;;;3.30;;
4389;SDS011;2209;48.982;8.406;2023-08-30T07:53:25;3.60;;;3.40;;
4389;SDS011;2209;48.982;8.406;2023-08-30T07:55:48;4.50;;;4.20;;
4389;SDS011;2209;48.982;8.406;2023-08-30T07:58:10;6.20;;;4.00;;
4389;SDS011;2209;48.982;8.406;2023-08-30T08:00:32;5.53;;;3.90;;
4389;SDS011;2209;48.982;8.406;2023-08-30T08:02:55;7.00;;;4.00;;
4389;SDS011;2209;48.982;8.406;2023-08-30T08:05:18;4.80;;;4.40;;
4389;SDS011;2209;48.982;8.406;2023-08-30T08:07:41;4.70;;;4.33;;
4389;SDS011;2209;48.982;8.406;2023-08-30T08:10:04;5.20;;;4.70;;
4389;SDS011;2209;48.982;8.406;2023-08-30T08:12:27;5.07;;;4.00;;
4389;SDS011;2209;48.982;8.406;2023-08-30T08:14:49;5.10;;;4.60;;
4389;SDS011;2209;48.982;8.406;2023-08-30T08:17:11;4.93;;;4.53;;
4389;SDS011;2209;48.982;8.406;2023-08-30T08:19:33;4.30;;;3.87;;
4389;SDS011;2209;48.982;8.406;2023-08-30T08:21:59;4.73;;;4.43;;
4389;SDS011;2209;48.982;8.406;2023-08-30T08:24:22;5.00;;;4.50;;
4389;SDS011;2209;48.982;8.406;2023-08-30T08:26:44;5.90;;;4.90;;
4389;SDS011;2209;48.982;8.406;2023-08-30T08:29:07;5.17;;;4.67;;
4389;SDS011;2209;48.982;8.406;2023-08-30T08:31:29;6.13;;;5.50;;
4389;SDS011;2209;48.982;8.406;2023-08-30T08:33:51;5.70;;;5.30;;
4389;SDS011;2209;48.982;8.406;2023-08-30T08:36:28;8.97;;;5.80;;
4389;SDS011;2209;48.982;8.406;2023-08-30T08:38:50;4.80;;;4.50;;
4389;SDS011;2209;48.982;8.406;2023-08-30T08:41:14;5.87;;;5.30;;
4389;SDS011;2209;48.982;8.406;2023-08-30T08:43:37;6.23;;;5.33;;
4389;SDS011;2209;48.982;8.406;2023-08-30T08:46:01;4.77;;;4.37;;
4389;SDS011;2209;48.982;8.406;2023-08-30T08:48:28;4.70;;;4.40;;
4389;SDS011;2209;48.982;8.406;2023-08-30T08:50:51;5.30;;;4.90;;
4389;SDS011;2209;48.982;8.406;2023-08-30T08:53:13;6.70;;;5.73;;
4389;SDS011;2209;48.982;8.406;2023-08-30T08:55:35;4.90;;;4.20;;
4389;SDS011;2209;48.982;8.406;2023-08-30T08:58:00;4.80;;;4.40;;
4389;SDS011;2209;48.982;8.406;2023-08-30T09:00:24;4.53;;;4.23;;
4389;SDS011;2209;48.982;8.406;2023-08-30T09:02:47;4.77;;;4.40;;
4389;SDS011;2209;48.982;8.406;2023-08-30T09:05:12;4.77;;;4.33;;
4389;SDS011;2209;48.982;8.406;2023-08-30T09:07:35;4.50;;;4.20;;
4389;SDS011;2209;48.982;8.406;2023-08-30T09:09:57;4.70;;;4.40;;
4389;SDS011;2209;48.982;8.406;2023-08-30T09:12:20;4.40;;;4.00;;
4389;SDS011;2209;48.982;8.406;2023-08-30T09:14:53;4.70;;;4.20;;
4389;SDS011;2209;48.982;8.406;2023-08-30T09:17:16;4.53;;;4.13;;
4389;SDS011;2209;48.982;8.406;2023-08-30T09:19:38;4.80;;;4.17;;
4389;SDS011;2209;48.982;8.406;2023-08-30T09:22:00;4.33;;;4.03;;
4389;SDS011;2209;48.982;8.406;2023-08-30T09:24:22;5.33;;;4.50;;
4389;SDS011;2209;48.982;8.406;2023-08-30T09:26:46;5.47;;;4.97;;
4389;SDS011;2209;48.982;8.406;2023-08-30T09:29:09;4.97;;;4.67;;
4389;SDS011;2209;48.982;8.406;2023-08-30T09:31:36;4.00;;;3.70;;
4389;SDS011;2209;48.982;8.406;2023-08-30T09:33:59;4.40;;;4.10;;
4389;SDS011;2209;48.982;8.406;2023-08-30T09:36:22;4.33;;;3.97;;
4389;SDS011;2209;48.982;8.406;2023-08-30T09:38:47;3.97;;;3.67;;
4389;SDS011;2209;48.982;8.406;2023-08-30T09:41:10;3.70;;;3.50;;
4389;SDS011;2209;48.982;8.406;2023-08-30T09:43:32;3.40;;;3.10;;
4389;SDS011;2209;48.982;8.406;2023-08-30T09:45:55;3.90;;;3.60;;
4389;SDS011;2209;48.982;8.406;2023-08-30T09:48:21;3.53;;;3.23;;
4389;SDS011;2209;48.982;8.406;2023-08-30T09:50:44;4.10;;;3.80;;
4389;SDS011;2209;48.982;8.406;2023-08-30T09:53:09;3.70;;;3.40;;
4389;SDS011;2209;48.982;8.406;2023-08-30T09:55:31;4.00;;;3.57;;
4389;SDS011;2209;48.982;8.406;2023-08-30T09:57:54;5.10;;;3.70;;
4389;SDS011;2209;48.982;8.406;2023-08-30T10:00:16;4.13;;;3.83;;
4389;SDS011;2209;48.982;8.406;2023-08-30T10:02:40;4.97;;;3.73;;
4389;SDS011;2209;48.982;8.406;2023-08-30T10:05:05;4.67;;;4.17;;
4389;SDS011;2209;48.982;8.406;2023-08-30T10:07:29;3.87;;;3.57;;
4389;SDS011;2209;48.982;8.406;2023-08-30T10:09:52;4.50;;;3.77;;
4389;SDS011;2209;48.982;8.406;2023-08-30T10:12:14;3.23;;;3.03;;
4389;SDS011;2209;48.982;8.406;2023-08-30T10:14:37;4.27;;;3.97;;
4389;SDS011;2209;48.982;8.406;2023-08-30T10:17:00;3.80;;;3.50;;
4389;SDS011;2209;48.982;8.406;2023-08-30T10:19:25;3.83;;;3.63;;
4389;SDS011;2209;48.982;8.406;2023-08-30T10:21:50;5.27;;;4.80;;
4389;SDS011;2209;48.982;8.406;2023-08-30T10:24:19;5.87;;;5.37;;
4389;SDS011;2209;48.982;8.406;2023-08-30T10:26:43;7.23;;;4.60;;
4389;SDS011;2209;48.982;8.406;2023-08-30T10:29:07;4.00;;;3.70;;
4389;SDS011;2209;48.982;8.406;2023-08-30T10:31:31;3.87;;;3.53;;
4389;SDS011;2209;48.982;8.406;2023-08-30T10:33:53;5.13;;;4.63;;
4389;SDS011;2209;48.982;8.406;2023-08-30T10:36:20;5.17;;;4.53;;
4389;SDS011;2209;48.982;8.406;2023-08-30T10:38:48;5.63;;;3.80;;
4389;SDS011;2209;48.982;8.406;2023-08-30T10:41:11;4.53;;;3.60;;
4389;SDS011;2209;48.982;8.406;2023-08-30T10:43:34;4.23;;;3.87;;
4389;SDS011;2209;48.982;8.406;2023-08-30T10:46:00;4.20;;;3.73;;
4389;SDS011;2209;48.982;8.406;2023-08-30T10:48:23;3.90;;;3.60;;
4389;SDS011;2209;48.982;8.406;2023-08-30T10:50:55;6.67;;;4.63;;
4389;SDS011;2209;48.982;8.406;2023-08-30T10:53:18;5.80;;;4.40;;
4389;SDS011;2209;48.982;8.406;2023-08-30T10:56:04;3.40;;;3.10;;
4389;SDS011;2209;48.982;8.406;2023-08-30T10:58:38;4.10;;;3.80;;
4389;SDS011;2209;48.982;8.406;2023-08-30T11:01:03;3.60;;;3.30;;
4389;SDS011;2209;48.982;8.406;2023-08-30T11:03:26;4.07;;;3.70;;
4389;SDS011;2209;48.982;8.406;2023-08-30T11:05:49;3.23;;;3.03;;
4389;SDS011;2209;48.982;8.406;2023-08-30T11:08:11;4.30;;;3.90;;
4389;SDS011;2209;48.982;8.406;2023-08-30T11:10:34;3.67;;;3.17;;
4389;SDS011;2209;48.982;8.406;2023-08-30T11:12:58;4.97;;;3.40;;
4389;SDS011;2209;48.982;8.406;2023-08-30T11:15:20;3.70;;;3.40;;
4389;SDS011;2209;48.982;8.406;2023-08-30T11:17:42;3.97;;;3.50;;
4389;SDS011;2209;48.982;8.406;2023-08-30T11:20:06;3.70;;;3.40;;
4389;SDS011;2209;48.982;8.406;2023-08-30T11:22:28;3.97;;;3.67;;
4389;SDS011;2209;48.982;8.406;2023-08-30T11:24:50;3.53;;;3.30;;
4389;SDS011;2209;48.982;8.406;2023-08-30T11:27:13;6.73;;;4.17;;
4389;SDS011;2209;48.982;8.406;2023-08-30T11:29:40;4.10;;;3.23;;
4389;SDS011;2209;48.982;8.406;2023-08-30T11:32:03;4.50;;;4.10;;
4389;SDS011;2209;48.982;8.406;2023-08-30T11:34:25;4.33;;;4.03;;
4389;SDS011;2209;48.982;8.406;2023-08-30T11:36:47;3.63;;;3.30;;
4389;SDS011;2209;48.982;8.406;2023-08-30T11:39:10;4.33;;;3.50;;
4389;SDS011;2209;48.982;8.406;2023-08-30T11:41:33;3.57;;;3.27;;
4389;SDS011;2209;48.982;8.406;2023-08-30T11:43:55;3.83;;;3.43;;
4389;SDS011;2209;48.982;8.406;2023-08-30T11:46:21;3.40;;;3.10;;
4389;SDS011;2209;48.982;8.406;2023-08-30T11:48:43;4.20;;;3.43;;
4389;SDS011;2209;48.982;8.406;2023-08-30T11:51:07;3.57;;;3.27;;
4389;SDS011;2209;48.982;8.406;2023-08-30T11:53:31;3.57;;;3.30;;
4389;SDS011;2209;48.982;8.406;2023-08-30T11:55:53;3.87;;;3.57;;
4389;SDS011;2209;48.982;8.406;2023-08-30T11:58:17;3.27;;;2.97;;
4389;SDS011;2209;48.982;8.406;2023-08-30T12:00:39;4.23;;;3.50;;
4389;SDS011;2209;48.982;8.406;2023-08-30T12:03:03;5.40;;;4.00;;
4389;SDS011;2209;48.982;8.406;2023-08-30T12:05:27;3.30;;;3.10;;
4389;SDS011;2209;48.982;8.406;2023-08-30T12:07:54;3.30;;;3.10;;
4389;SDS011;2209;48.982;8.406;2023-08-30T12:10:17;3.50;;;3.20;;
4389;SDS011;2209;48.982;8.406;2023-08-30T12:12:44;2.93;;;2.63;;
4389;SDS011;2209;48.982;8.406;2023-08-30T12:15:10;3.77;;;3.37;;
4389;SDS011;2209;48.982;8.406;2023-08-30T12:17:34;3.10;;;2.80;;
4389;SDS011;2209;48.982;8.406;2023-08-30T12:19:57;3.77;;;3.53;;
4389;SDS011;2209;48.982;8.406;2023-08-30T12:22:20;4.27;;;3.87;;
4389;SDS011;2209;48.982;8.406;2023-08-30T12:24:42;3.53;;;3.33;;
4389;SDS011;2209;48.982;8.406;2023-08-30T12:27:05;3.40;;;3.20;;
4389;SDS011;2209;48.982;8.406;2023-08-30T12:29:27;3.20;;;2.77;;
4389;SDS011;2209;48.982;8.406;2023-08-30T12:31:50;4.37;;;2.77;;
4389;SDS011;2209;48.982;8.406;2023-08-30T12:34:12;3.53;;;3.23;;
4389;SDS011;2209;48.982;8.406;2023-08-30T12:36:35;5.67;;;3.93;;
4389;SDS011;2209;48.982;8.406;2023-08-30T12:38:57;3.30;;;3.10;;
4389;SDS011;2209;48.982;8.406;2023-08-30T12:41:19;3.03;;;2.87;;
4389;SDS011;2209;48.982;8.406;2023-08-30T12:43:43;5.00;;;3.20;;
4389;SDS011;2209;48.982;8.406;2023-08-30T12:46:05;4.50;;;2.90;;
4389;SDS011;2209;48.982;8.406;2023-08-30T12:48:27;2.93;;;2.60;;
4389;SDS011;2209;48.982;8.406;2023-08-30T12:50:49;4.67;;;2.77;;
4389;SDS011;2209;48.982;8.406;2023-08-30T12:53:13;2.43;;;2.33;;
4389;SDS011;2209;48.982;8.406;2023-08-30T12:55:37;2.90;;;2.70;;
4389;SDS011;2209;48.982;8.406;2023-08-30T12:58:00;2.80;;;2.60;;
4389;SDS011;2209;48.982;8.406;2023-08-30T13:00:23;2.70;;;2.50;;
4389;SDS011;2209;48.982;8.406;2023-08-30T13:02:46;4.17;;;2.97;;
4389;SDS011;2209;48.982;8.406;2023-08-30T13:05:08;3.13;;;2.93;;
4389;SDS011;2209;48.982;8.406;2023-08-30T13:07:31;3.13;;;2.47;;
4389;SDS011;2209;48.982;8.406;2023-08-30T13:09:54;2.70;;;2.50;;
4389;SDS011;2209;48.982;8.406;2023-08-30T13:12:16;2.90;;;2.40;;
4389;SDS011;2209;48.982;8.406;2023-08-30T13:14:38;2.57;;;2.20;;
4389;SDS011;2209;48.982;8.406;2023-08-30T13:17:00;2.83;;;2.63;;
4389;SDS011;2209;48.982;8.406;2023-08-30T13:19:23;3.27;;;2.97;;
4389;SDS011;2209;48.982;8.406;2023-08-30T13:21:45;5.33;;;3.10;;
4389;SDS011;2209;48.982;8.406;2023-08-30T13:24:07;2.70;;;2.50;;
4389;SDS011;2209;48.982;8.406;2023-08-30T13:26:30;2.93;;;2.60;;
4389;SDS011;2209;48.982;8.406;2023-08-30T13:28:52;3.50;;;2.40;;
4389;SDS011;2209;48.982;8.406;2023-08-30T13:31:14;2.50;;;2.40;;
4389;SDS011;2209;48.982;8.406;2023-08-30T13:33:37;2.70;;;2.50;;
4389;SDS011;2209;48.982;8.406;2023-08-30T13:35:59;3.33;;;2.70;;
4389;SDS011;2209;48.982;8.406;2023-08-30T13:38:22;2.50;;;2.40;;
4389;SDS011;2209;48.982;8.406;2023-08-30T13:40:45;2.77;;;2.57;;
4389;SDS011;2209;48.982;8.406;2023-08-30T13:43:09;2.67;;;2.47;;
4389;SDS011;2209;48.982;8.406;2023-08-30T13:45:31;2.27;;;2.10;;
4389;SDS011;2209;48.982;8.406;2023-08-30T13:47:53;2.40;;;2.30;;
4389;SDS011;2209;48.982;8.406;2023-08-30T13:50:15;2.53;;;2.33;;
4389;SDS011;2209;48.982;8.406;2023-08-30T13:52:37;3.97;;;2.30;;
4389;SDS011;2209;48.982;8.406;2023-08-30T13:54:59;2.83;;;2.60;;
4389;SDS011;2209;48.982;8.406;2023-08-30T13:57:21;3.30;;;2.63;;
4389;SDS011;2209;48.982;8.406;2023-08-30T13:59:45;2.87;;;2.60;;
4389;SDS011;2209;48.982;8.406;2023-08-30T14:02:07;2.77;;;2.23;;
4389;SDS011;2209;48.982;8.406;2023-08-30T14:04:29;2.80;;;2.60;;
4389;SDS011;2209;48.982;8.406;2023-08-30T14:06:53;3.80;;;2.50;;
4389;SDS011;2209;48.982;8.406;2023-08-30T14:09:15;3.37;;;3.07;;
4389;SDS011;2209;48.982;8.406;2023-08-30T14:11:38;3.43;;;2.50;;
4389;SDS011;2209;48.982;8.406;2023-08-30T14:14:02;2.60;;;2.40;;
4389;SDS011;2209;48.982;8.406;2023-08-30T14:16:25;2.50;;;2.33;;
4389;SDS011;2209;48.982;8.406;2023-08-30T14:18:47;2.70;;;2.50;;
4389;SDS011;2209;48.982;8.406;2023-08-30T14:21:09;2.50;;;2.30;;
4389;SDS011;2209;48.982;8.406;2023-08-30T14:23:31;3.00;;;2.80;;
4389;SDS011;2209;48.982;8.406;2023-08-30T14:25:57;2.60;;;2.40;;
4389;SDS011;2209;48.982;8.406;2023-08-30T14:28:20;2.57;;;2.47;;
4389;SDS011;2209;48.982;8.406;2023-08-30T14:30:42;2.20;;;2.00;;
4389;SDS011;2209;48.982;8.406;2023-08-30T14:33:05;2.80;;;2.60;;
4389;SDS011;2209;48.982;8.406;2023-08-30T14:35:27;2.93;;;2.73;;
4389;SDS011;2209;48.982;8.406;2023-08-30T14:37:51;2.03;;;1.93;;
4389;SDS011;2209;48.982;8.406;2023-08-30T14:40:14;2.50;;;2.30;;
4389;SDS011;2209;48.982;8.406;2023-08-30T14:42:36;4.83;;;2.57;;
4389;SDS011;2209;48.982;8.406;2023-08-30T14:44:58;2.53;;;2.33;;
4389;SDS011;2209;48.982;8.406;2023-08-30T14:47:20;5.30;;;3.23;;
4389;SDS011;2209;48.982;8.406;2023-08-30T14:49:44;2.50;;;2.10;;